sensor_id;sensor_type;location;lat;lon;timestamp;pressure;altitude;pressure_sealevel;temperature;humidity
6464;BME280;3265;42.694;23.282;2023-02-21T00:02:06;95024.66;;;6.60;67.50
6464;BME280;3265;42.694;23.282;2023-02-21T00:04:51;95021.47;;;6.58;67.19
6464;BME280;3265;42.694;23.282;2023-02-21T00:07:36;95021.84;;;6.55;67.28
6464;BME280;3265;42.694;23.282;2023-02-21T00:10:20;94987.34;;;6.20;68.07
6464;BME280;3265;42.694;23.282;2023-02-21T00:13:04;95012.06;;;6.29;69.06
6464;BME280;3265;42.694;23.282;2023-02-21T00:15:48;95007.25;;;6.26;68.84
6464;BME280;3265;42.694;23.282;2023-02-21T00:18:33;95013.03;;;6.28;68.28
6464;BME280;3265;42.694;23.282;2023-02-21T00:21:18;95013.03;;;6.28;68.25
6464;BME280;3265;42.694;23.282;2023-02-21T00:24:02;95012.50;;;6.18;69.11
6464;BME280;3265;42.694;23.282;2023-02-21T00:26:47;95005.13;;;6.15;69.17
6464;BME280;3265;42.694;23.282;2023-02-21T00:29:31;94998.75;;;6.11;69.46
6464;BME280;3265;42.694;23.282;2023-02-21T00:32:16;94995.97;;;6.12;69.72
6464;BME280;3265;42.694;23.282;2023-02-21T00:35:00;94989.03;;;6.13;68.94
6464;BME280;3265;42.694;23.282;2023-02-21T00:37:49;94994.81;;;6.15;69.64
6464;BME280;3265;42.694;23.282;2023-02-21T00:40:33;95000.59;;;6.17;69.35
6464;BME280;3265;42.694;23.282;2023-02-21T00:43:17;94997.22;;;6.16;68.52
6464;BME280;3265;42.694;23.282;2023-02-21T00:46:01;94983.44;;;6.09;69.28
6464;BME280;3265;42.694;23.282;2023-02-21T00:48:45;94981.34;;;5.98;69.93
6464;BME280;3265;42.694;23.282;2023-02-21T00:51:30;94971.75;;;5.92;70.08
6464;BME280;3265;42.694;23.282;2023-02-21T00:54:16;94982.94;;;5.85;70.57
6464;BME280;3265;42.694;23.282;2023-02-21T00:56:59;94973.94;;;5.81;70.85
6464;BME280;3265;42.694;23.282;2023-02-21T00:59:44;94958.59;;;5.72;71.89
6464;BME280;3265;42.694;23.282;2023-02-21T01:02:28;94960.19;;;5.73;71.78
6464;BME280;3265;42.694;23.282;2023-02-21T01:05:13;94945.97;;;5.63;72.35
6464;BME280;3265;42.694;23.282;2023-02-21T01:07:57;94955.84;;;5.74;71.94
6464;BME280;3265;42.694;23.282;2023-02-21T01:10:43;94922.53;;;5.43;72.12
6464;BME280;3265;42.694;23.282;2023-02-21T01:13:27;94925.81;;;5.52;72.70
6464;BME280;3265;42.694;23.282;2023-02-21T01:16:11;94938.16;;;5.71;71.64
6464;BME280;3265;42.694;23.282;2023-02-21T01:18:55;94906.97;;;5.51;71.93
6464;BME280;3265;42.694;23.282;2023-02-21T01:21:39;94926.16;;;5.63;72.22
6464;BME280;3265;42.694;23.282;2023-02-21T01:24:23;94935.03;;;5.76;71.86
6464;BME280;3265;42.694;23.282;2023-02-21T01:27:09;94941.06;;;5.83;72.22
6464;BME280;3265;42.694;23.282;2023-02-21T01:29:53;94926.47;;;5.90;71.84
6464;BME280;3265;42.694;23.282;2023-02-21T01:32:37;94941.16;;;5.89;71.72
6464;BME280;3265;42.694;23.282;2023-02-21T01:35:21;94923.53;;;5.93;71.12
6464;BME280;3265;42.694;23.282;2023-02-21T01:38:06;94937.25;;;5.93;71.61
6464;BME280;3265;42.694;23.282;2023-02-21T01:40:50;94925.50;;;5.91;71.12
6464;BME280;3265;42.694;23.282;2023-02-21T01:43:36;94923.09;;;5.89;71.42
6464;BME280;3265;42.694;23.282;2023-02-21T01:46:20;94923.66;;;5.70;72.31
6464;BME280;3265;42.694;23.282;2023-02-21T01:49:08;94916.63;;;5.79;72.64
6464;BME280;3265;42.694;23.282;2023-02-21T01:51:53;94911.00;;;5.75;72.13
6464;BME280;3265;42.694;23.282;2023-02-21T01:54:41;94906.94;;;5.66;72.70
6464;BME280;3265;42.694;23.282;2023-02-21T01:57:27;94913.91;;;5.65;73.30
6464;BME280;3265;42.694;23.282;2023-02-21T02:01:41;94906.88;;;5.59;73.49
6464;BME280;3265;42.694;23.282;2023-02-21T02:04:30;94899.94;;;5.60;73.59
6464;BME280;3265;42.694;23.282;2023-02-21T02:07:15;94898.59;;;5.64;73.78
6464;BME280;3265;42.694;23.282;2023-02-21T02:09:59;94887.22;;;5.73;73.01
6464;BME280;3265;42.694;23.282;2023-02-21T02:15:51;94873.31;;;5.89;72.73
6464;BME280;3265;42.694;23.282;2023-02-21T02:18:32;94881.91;;;5.96;72.34
6464;BME280;3265;42.694;23.282;2023-02-21T02:21:19;94888.03;;;5.95;72.28
6464;BME280;3265;42.694;23.282;2023-02-21T02:24:18;94889.47;;;5.97;72.25
6464;BME280;3265;42.694;23.282;2023-02-21T02:27:13;94888.13;;;6.01;72.34
6464;BME280;3265;42.694;23.282;2023-02-21T02:30:05;94875.66;;;6.05;72.21
6464;BME280;3265;42.694;23.282;2023-02-21T02:33:07;94873.06;;;6.05;71.40
6464;BME280;3265;42.694;23.282;2023-02-21T02:35:44;94862.09;;;5.96;71.63
6464;BME280;3265;42.694;23.282;2023-02-21T02:38:17;94879.88;;;6.12;71.59
6464;BME280;3265;42.694;23.282;2023-02-21T02:40:52;94876.94;;;6.15;71.93
6464;BME280;3265;42.694;23.282;2023-02-21T02:43:25;94887.69;;;6.19;71.68
6464;BME280;3265;42.694;23.282;2023-02-21T02:45:58;94876.69;;;6.10;72.14
6464;BME280;3265;42.694;23.282;2023-02-21T02:48:32;94878.66;;;6.08;72.85
6464;BME280;3265;42.694;23.282;2023-02-21T02:51:02;94880.06;;;6.11;72.56
6464;BME280;3265;42.694;23.282;2023-02-21T02:53:32;94891.00;;;6.13;72.24
6464;BME280;3265;42.694;23.282;2023-02-21T02:56:01;94871.09;;;6.07;72.42
6464;BME280;3265;42.694;23.282;2023-02-21T02:58:30;94884.81;;;6.07;71.99
6464;BME280;3265;42.694;23.282;2023-02-21T03:01:08;94875.94;;;5.95;71.96
6464;BME280;3265;42.694;23.282;2023-02-21T03:03:47;94869.38;;;5.93;72.63
6464;BME280;3265;42.694;23.282;2023-02-21T03:06:27;94875.50;;;5.92;72.92
6464;BME280;3265;42.694;23.282;2023-02-21T03:09:01;94874.75;;;5.91;73.26
6464;BME280;3265;42.694;23.282;2023-02-21T03:11:36;94868.78;;;5.91;73.10
6464;BME280;3265;42.694;23.282;2023-02-21T03:14:12;94874.75;;;5.91;72.09
6464;BME280;3265;42.694;23.282;2023-02-21T03:16:44;94862.66;;;5.77;71.98
6464;BME280;3265;42.694;23.282;2023-02-21T03:19:16;94868.34;;;5.72;72.95
6464;BME280;3265;42.694;23.282;2023-02-21T03:21:47;94852.31;;;5.56;73.32
6464;BME280;3265;42.694;23.282;2023-02-21T03:24:17;94866.06;;;5.63;73.11
6464;BME280;3265;42.694;23.282;2023-02-21T03:26:47;94860.97;;;5.69;73.91
6464;BME280;3265;42.694;23.282;2023-02-21T03:29:15;94860.75;;;5.64;74.15
6464;BME280;3265;42.694;23.282;2023-02-21T03:31:47;94848.78;;;5.57;74.12
6464;BME280;3265;42.694;23.282;2023-02-21T03:34:16;94855.34;;;5.59;73.75
6464;BME280;3265;42.694;23.282;2023-02-21T03:36:45;94852.13;;;5.57;74.13
6464;BME280;3265;42.694;23.282;2023-02-21T03:39:11;94845.81;;;5.60;74.45
6464;BME280;3265;42.694;23.282;2023-02-21T03:41:38;94841.69;;;5.44;74.92
6464;BME280;3265;42.694;23.282;2023-02-21T03:44:05;94839.97;;;5.51;74.61
6464;BME280;3265;42.694;23.282;2023-02-21T03:46:33;94847.34;;;5.54;74.42
6464;BME280;3265;42.694;23.282;2023-02-21T03:49:00;94851.44;;;5.49;74.72
6464;BME280;3265;42.694;23.282;2023-02-21T03:51:27;94860.88;;;5.42;76.11
6464;BME280;3265;42.694;23.282;2023-02-21T03:53:55;94855.50;;;5.37;74.84
6464;BME280;3265;42.694;23.282;2023-02-21T03:56:22;94863.97;;;5.52;75.19
6464;BME280;3265;42.694;23.282;2023-02-21T03:58:48;94871.44;;;5.47;75.58
6464;BME280;3265;42.694;23.282;2023-02-21T04:01:15;94870.66;;;5.32;75.91
6464;BME280;3265;42.694;23.282;2023-02-21T04:03:42;94856.22;;;5.31;75.68
6464;BME280;3265;42.694;23.282;2023-02-21T04:06:09;94863.31;;;5.14;75.95
6464;BME280;3265;42.694;23.282;2023-02-21T04:08:36;94861.53;;;5.29;76.18
6464;BME280;3265;42.694;23.282;2023-02-21T04:11:04;94858.25;;;5.21;76.21
6464;BME280;3265;42.694;23.282;2023-02-21T04:13:31;94867.28;;;5.31;75.36
6464;BME280;3265;42.694;23.282;2023-02-21T04:15:58;94878.75;;;5.29;75.72
6464;BME280;3265;42.694;23.282;2023-02-21T04:18:24;94865.72;;;5.15;75.59
6464;BME280;3265;42.694;23.282;2023-02-21T04:20:51;94898.31;;;5.23;76.17
6464;BME280;3265;42.694;23.282;2023-02-21T04:23:19;94885.38;;;5.17;75.89
6464;BME280;3265;42.694;23.282;2023-02-21T04:25:46;94883.03;;;5.22;75.71
6464;BME280;3265;42.694;23.282;2023-02-21T04:28:15;94887.84;;;5.25;75.65
6464;BME280;3265;42.694;23.282;2023-02-21T04:30:42;94909.31;;;5.17;75.47
6464;BME280;3265;42.694;23.282;2023-02-21T04:33:08;94903.91;;;5.12;75.85
6464;BME280;3265;42.694;23.282;2023-02-21T04:35:35;94899.72;;;5.11;75.92
6464;BME280;3265;42.694;23.282;2023-02-21T04:38:02;94909.06;;;5.12;76.03
6464;BME280;3265;42.694;23.282;2023-02-21T04:40:29;94914.31;;;5.19;76.33
6464;BME280;3265;42.694;23.282;2023-02-21T04:42:56;94901.88;;;5.22;76.09
6464;BME280;3265;42.694;23.282;2023-02-21T04:45:24;94894.41;;;5.27;75.70
6464;BME280;3265;42.694;23.282;2023-02-21T04:47:51;94910.56;;;5.21;75.41
6464;BME280;3265;42.694;23.282;2023-02-21T04:50:18;94897.84;;;5.20;75.54
6464;BME280;3265;42.694;23.282;2023-02-21T04:52:46;94903.66;;;5.22;75.23
6464;BME280;3265;42.694;23.282;2023-02-21T04:55:13;94903.66;;;5.07;76.68
6464;BME280;3265;42.694;23.282;2023-02-21T04:57:40;94887.66;;;5.11;76.13
6464;BME280;3265;42.694;23.282;2023-02-21T05:00:09;94891.66;;;4.99;77.19
6464;BME280;3265;42.694;23.282;2023-02-21T05:02:41;94884.66;;;4.93;76.10
6464;BME280;3265;42.694;23.282;2023-02-21T05:05:08;94872.50;;;4.87;77.09
6464;BME280;3265;42.694;23.282;2023-02-21T05:07:35;94870.28;;;4.99;76.98
6464;BME280;3265;42.694;23.282;2023-02-21T05:10:03;94849.03;;;4.82;77.02
6464;BME280;3265;42.694;23.282;2023-02-21T05:12:31;94863.78;;;4.88;78.03
6464;BME280;3265;42.694;23.282;2023-02-21T05:14:57;94873.97;;;4.96;77.44
6464;BME280;3265;42.694;23.282;2023-02-21T05:17:24;94869.97;;;4.94;77.31
6464;BME280;3265;42.694;23.282;2023-02-21T05:19:54;94857.41;;;4.84;78.84
6464;BME280;3265;42.694;23.282;2023-02-21T05:22:21;94863.16;;;4.86;78.54
6464;BME280;3265;42.694;23.282;2023-02-21T05:24:48;94860.22;;;4.89;78.87
6464;BME280;3265;42.694;23.282;2023-02-21T05:27:15;94847.44;;;4.81;78.74
6464;BME280;3265;42.694;23.282;2023-02-21T05:29:45;94849.94;;;4.89;79.27
6464;BME280;3265;42.694;23.282;2023-02-21T05:32:12;94847.00;;;4.78;79.38
6464;BME280;3265;42.694;23.282;2023-02-21T05:34:39;94847.00;;;4.78;79.05
6464;BME280;3265;42.694;23.282;2023-02-21T05:37:10;94859.88;;;4.78;79.92
6464;BME280;3265;42.694;23.282;2023-02-21T05:39:37;94849.22;;;4.81;78.68
6464;BME280;3265;42.694;23.282;2023-02-21T05:42:04;94856.94;;;4.95;78.83
6464;BME280;3265;42.694;23.282;2023-02-21T05:44:32;94839.19;;;4.86;77.54
6464;BME280;3265;42.694;23.282;2023-02-21T05:46:59;94874.97;;;5.10;77.73
6464;BME280;3265;42.694;23.282;2023-02-21T05:49:26;94874.16;;;5.24;76.08
6464;BME280;3265;42.694;23.282;2023-02-21T05:51:53;94876.00;;;5.30;76.18
6464;BME280;3265;42.694;23.282;2023-02-21T05:54:22;94880.09;;;5.39;74.87
6464;BME280;3265;42.694;23.282;2023-02-21T05:56:49;94879.66;;;5.36;74.93
6464;BME280;3265;42.694;23.282;2023-02-21T05:59:18;94887.19;;;5.37;75.24
6464;BME280;3265;42.694;23.282;2023-02-21T06:01:46;94887.84;;;5.25;74.84
6464;BME280;3265;42.694;23.282;2023-02-21T06:04:13;94891.81;;;5.27;75.04
6464;BME280;3265;42.694;23.282;2023-02-21T06:06:40;94900.16;;;5.44;74.54
6464;BME280;3265;42.694;23.282;2023-02-21T06:09:07;94911.50;;;5.49;74.75
6464;BME280;3265;42.694;23.282;2023-02-21T06:11:37;94879.19;;;5.32;74.51
6464;BME280;3265;42.694;23.282;2023-02-21T06:14:06;94899.53;;;5.56;74.65
6464;BME280;3265;42.694;23.282;2023-02-21T06:16:35;94906.94;;;5.66;73.79
6464;BME280;3265;42.694;23.282;2023-02-21T06:19:03;94908.63;;;5.73;72.90
6464;BME280;3265;42.694;23.282;2023-02-21T06:21:31;94912.88;;;5.81;72.53
6464;BME280;3265;42.694;23.282;2023-02-21T06:24:00;94903.53;;;5.80;73.73
6464;BME280;3265;42.694;23.282;2023-02-21T06:26:27;94903.16;;;5.83;73.15
6464;BME280;3265;42.694;23.282;2023-02-21T06:28:55;94913.41;;;5.91;72.41
6464;BME280;3265;42.694;23.282;2023-02-21T06:31:22;94909.44;;;5.89;72.74
6464;BME280;3265;42.694;23.282;2023-02-21T06:33:50;94899.78;;;5.97;71.92
6464;BME280;3265;42.694;23.282;2023-02-21T06:36:19;94911.44;;;5.93;71.88
6464;BME280;3265;42.694;23.282;2023-02-21T06:38:47;94909.13;;;5.98;71.77
6464;BME280;3265;42.694;23.282;2023-02-21T06:41:16;94910.97;;;6.04;71.86
6464;BME280;3265;42.694;23.282;2023-02-21T06:43:43;94913.75;;;6.03;71.74
6464;BME280;3265;42.694;23.282;2023-02-21T06:46:16;94917.00;;;6.11;72.01
6464;BME280;3265;42.694;23.282;2023-02-21T06:48:42;94914.09;;;6.21;70.70
6464;BME280;3265;42.694;23.282;2023-02-21T06:51:09;94916.13;;;6.25;70.57
6464;BME280;3265;42.694;23.282;2023-02-21T06:53:39;94923.31;;;6.30;71.54
6464;BME280;3265;42.694;23.282;2023-02-21T06:56:06;94920.22;;;6.41;70.45
6464;BME280;3265;42.694;23.282;2023-02-21T06:58:33;94923.06;;;6.46;71.02
6464;BME280;3265;42.694;23.282;2023-02-21T07:01:00;94918.94;;;6.52;70.14
6464;BME280;3265;42.694;23.282;2023-02-21T07:03:28;94911.50;;;6.63;69.98
6464;BME280;3265;42.694;23.282;2023-02-21T07:05:55;94916.88;;;6.68;69.85
6464;BME280;3265;42.694;23.282;2023-02-21T07:08:22;94914.09;;;6.70;69.98
6464;BME280;3265;42.694;23.282;2023-02-21T07:10:50;94917.97;;;6.80;69.09
6464;BME280;3265;42.694;23.282;2023-02-21T07:13:17;94918.00;;;6.87;68.90
6464;BME280;3265;42.694;23.282;2023-02-21T07:15:43;94909.56;;;7.00;67.80
6464;BME280;3265;42.694;23.282;2023-02-21T07:18:12;94908.56;;;7.01;67.68
6464;BME280;3265;42.694;23.282;2023-02-21T07:20:40;94917.13;;;7.01;68.24
6464;BME280;3265;42.694;23.282;2023-02-21T07:23:07;94907.19;;;7.05;67.66
6464;BME280;3265;42.694;23.282;2023-02-21T07:25:34;94906.44;;;7.11;68.63
6464;BME280;3265;42.694;23.282;2023-02-21T07:28:01;94915.84;;;7.18;68.12
6464;BME280;3265;42.694;23.282;2023-02-21T07:30:28;94906.91;;;7.27;67.76
6464;BME280;3265;42.694;23.282;2023-02-21T07:32:56;94894.00;;;7.27;68.01
6464;BME280;3265;42.694;23.282;2023-02-21T07:35:23;94881.06;;;7.21;68.22
6464;BME280;3265;42.694;23.282;2023-02-21T07:37:51;94896.69;;;7.47;67.16
6464;BME280;3265;42.694;23.282;2023-02-21T07:40:18;94892.75;;;7.58;66.73
6464;BME280;3265;42.694;23.282;2023-02-21T07:42:45;94894.00;;;7.75;65.76
6464;BME280;3265;42.694;23.282;2023-02-21T07:45:13;94882.06;;;7.74;65.98
6464;BME280;3265;42.694;23.282;2023-02-21T07:47:40;94889.25;;;7.78;66.01
6464;BME280;3265;42.694;23.282;2023-02-21T07:50:08;94880.09;;;7.82;65.23
6464;BME280;3265;42.694;23.282;2023-02-21T07:52:35;94877.31;;;7.84;66.25
6464;BME280;3265;42.694;23.282;2023-02-21T07:55:04;94886.69;;;7.98;65.15
6464;BME280;3265;42.694;23.282;2023-02-21T07:57:31;94858.41;;;7.96;65.21
6464;BME280;3265;42.694;23.282;2023-02-21T07:59:58;94875.97;;;8.14;64.78
6464;BME280;3265;42.694;23.282;2023-02-21T08:02:25;94872.81;;;8.19;65.21
6464;BME280;3265;42.694;23.282;2023-02-21T08:04:52;94869.59;;;8.23;64.97
6464;BME280;3265;42.694;23.282;2023-02-21T08:07:18;94869.84;;;8.28;64.09
6464;BME280;3265;42.694;23.282;2023-02-21T08:09:45;94874.22;;;8.41;63.47
6464;BME280;3265;42.694;23.282;2023-02-21T08:12:14;94873.66;;;8.45;64.09
6464;BME280;3265;42.694;23.282;2023-02-21T08:14:40;94875.63;;;8.50;63.88
6464;BME280;3265;42.694;23.282;2023-02-21T08:17:07;94883.59;;;8.55;62.76
6464;BME280;3265;42.694;23.282;2023-02-21T08:19:34;94864.25;;;8.57;62.84
6464;BME280;3265;42.694;23.282;2023-02-21T08:22:01;94864.84;;;8.66;63.20
6464;BME280;3265;42.694;23.282;2023-02-21T08:24:27;94880.00;;;8.69;62.27
6464;BME280;3265;42.694;23.282;2023-02-21T08:26:54;94865.25;;;8.70;62.63
6464;BME280;3265;42.694;23.282;2023-02-21T08:29:23;94877.81;;;8.79;61.84
6464;BME280;3265;42.694;23.282;2023-02-21T08:31:50;94852.09;;;8.84;61.14
6464;BME280;3265;42.694;23.282;2023-02-21T08:34:16;94852.31;;;8.63;61.12
6464;BME280;3265;42.694;23.282;2023-02-21T08:36:43;94865.44;;;8.81;61.55
6464;BME280;3265;42.694;23.282;2023-02-21T08:39:10;94850.47;;;8.90;60.32
6464;BME280;3265;42.694;23.282;2023-02-21T08:41:40;94866.22;;;8.95;60.36
6464;BME280;3265;42.694;23.282;2023-02-21T08:44:08;94866.44;;;9.00;60.59
6464;BME280;3265;42.694;23.282;2023-02-21T08:46:36;94847.44;;;9.12;59.71
6464;BME280;3265;42.694;23.282;2023-02-21T08:49:05;94847.59;;;9.24;59.59
6464;BME280;3265;42.694;23.282;2023-02-21T08:51:32;94855.31;;;9.44;58.27
6464;BME280;3265;42.694;23.282;2023-02-21T08:54:00;94861.06;;;9.52;57.98
6464;BME280;3265;42.694;23.282;2023-02-21T08:56:28;94854.22;;;9.64;57.69
6464;BME280;3265;42.694;23.282;2023-02-21T08:58:56;94841.44;;;9.69;56.95
6464;BME280;3265;42.694;23.282;2023-02-21T09:01:28;94847.13;;;9.85;57.48
6464;BME280;3265;42.694;23.282;2023-02-21T09:03:57;94849.84;;;9.96;56.89
6464;BME280;3265;42.694;23.282;2023-02-21T09:06:24;94858.38;;;10.10;56.39
6464;BME280;3265;42.694;23.282;2023-02-21T09:08:51;94845.16;;;10.18;55.54
6464;BME280;3265;42.694;23.282;2023-02-21T09:11:18;94857.91;;;10.26;55.18
6464;BME280;3265;42.694;23.282;2023-02-21T09:13:44;94860.59;;;10.38;55.12
6464;BME280;3265;42.694;23.282;2023-02-21T09:16:11;94853.13;;;10.72;53.94
6464;BME280;3265;42.694;23.282;2023-02-21T09:18:38;94861.72;;;11.16;52.86
6464;BME280;3265;42.694;23.282;2023-02-21T09:21:07;94850.06;;;11.55;52.44
6464;BME280;3265;42.694;23.282;2023-02-21T09:23:33;94851.31;;;12.00;50.08
6464;BME280;3265;42.694;23.282;2023-02-21T09:26:00;94848.41;;;12.49;48.83
6464;BME280;3265;42.694;23.282;2023-02-21T09:28:27;94834.59;;;12.95;47.52
6464;BME280;3265;42.694;23.282;2023-02-21T09:30:55;94837.47;;;13.45;44.99
6464;BME280;3265;42.694;23.282;2023-02-21T09:33:22;94849.13;;;13.94;44.86
6464;BME280;3265;42.694;23.282;2023-02-21T09:35:49;94841.44;;;14.16;42.66
6464;BME280;3265;42.694;23.282;2023-02-21T09:38:17;94842.47;;;14.60;43.78
6464;BME280;3265;42.694;23.282;2023-02-21T09:40:47;94842.97;;;15.12;41.03
6464;BME280;3265;42.694;23.282;2023-02-21T09:43:18;94836.09;;;15.66;39.86
6464;BME280;3265;42.694;23.282;2023-02-21T09:45:48;94826.34;;;16.10;38.98
6464;BME280;3265;42.694;23.282;2023-02-21T09:48:17;94835.69;;;16.54;38.73
6464;BME280;3265;42.694;23.282;2023-02-21T09:50:47;94839.19;;;17.01;37.20
6464;BME280;3265;42.694;23.282;2023-02-21T09:53:20;94831.84;;;17.45;36.57
6464;BME280;3265;42.694;23.282;2023-02-21T09:55:49;94834.94;;;17.99;35.87
6464;BME280;3265;42.694;23.282;2023-02-21T09:58:19;94820.31;;;18.54;35.63
6464;BME280;3265;42.694;23.282;2023-02-21T10:00:46;94771.09;;;18.69;33.28
6464;BME280;3265;42.694;23.282;2023-02-21T10:03:38;94820.16;;;19.60;32.58
6464;BME280;3265;42.694;23.282;2023-02-21T10:06:22;94798.13;;;20.00;31.93
6464;BME280;3265;42.694;23.282;2023-02-21T10:08:56;94785.25;;;20.32;31.08
6464;BME280;3265;42.694;23.282;2023-02-21T10:11:32;94789.22;;;20.68;29.18
6464;BME280;3265;42.694;23.282;2023-02-21T10:14:12;94813.16;;;20.77;26.11
6464;BME280;3265;42.694;23.282;2023-02-21T10:16:46;94799.94;;;21.11;25.33
6464;BME280;3265;42.694;23.282;2023-02-21T10:19:20;94805.25;;;20.77;25.63
6464;BME280;3265;42.694;23.282;2023-02-21T10:21:52;94808.88;;;20.52;25.77
6464;BME280;3265;42.694;23.282;2023-02-21T10:24:26;94807.91;;;20.38;25.25
6464;BME280;3265;42.694;23.282;2023-02-21T10:26:57;94801.81;;;20.43;25.17
6464;BME280;3265;42.694;23.282;2023-02-21T10:29:37;94808.84;;;20.57;24.88
6464;BME280;3265;42.694;23.282;2023-02-21T10:32:05;94801.38;;;20.64;24.98
6464;BME280;3265;42.694;23.282;2023-02-21T10:34:34;94789.91;;;20.45;25.04
6464;BME280;3265;42.694;23.282;2023-02-21T10:37:05;94794.69;;;20.43;24.89
6464;BME280;3265;42.694;23.282;2023-02-21T10:39:42;94770.22;;;20.90;24.53
6464;BME280;3265;42.694;23.282;2023-02-21T10:42:17;94774.88;;;21.32;24.17
6464;BME280;3265;42.694;23.282;2023-02-21T10:44:48;94755.34;;;20.99;23.76
6464;BME280;3265;42.694;23.282;2023-02-21T10:47:18;94725.59;;;20.88;24.02
6464;BME280;3265;42.694;23.282;2023-02-21T10:49:53;94737.59;;;21.52;23.40
6464;BME280;3265;42.694;23.282;2023-02-21T10:52:25;94762.66;;;21.78;23.05
6464;BME280;3265;42.694;23.282;2023-02-21T10:55:01;94768.66;;;22.08;23.25
6464;BME280;3265;42.694;23.282;2023-02-21T10:57:30;94722.16;;;22.01;22.92
6464;BME280;3265;42.694;23.282;2023-02-21T10:59:57;94751.69;;;22.27;23.11
6464;BME280;3265;42.694;23.282;2023-02-21T11:02:31;94720.47;;;21.87;22.90
6464;BME280;3265;42.694;23.282;2023-02-21T11:05:12;94735.34;;;22.39;23.32
6464;BME280;3265;42.694;23.282;2023-02-21T11:07:41;94737.44;;;22.55;23.04
6464;BME280;3265;42.694;23.282;2023-02-21T11:10:27;94718.09;;;22.74;23.40
6464;BME280;3265;42.694;23.282;2023-02-21T11:13:13;94736.72;;;22.36;22.37
6464;BME280;3265;42.694;23.282;2023-02-21T11:15:41;94732.69;;;21.83;23.59
6464;BME280;3265;42.694;23.282;2023-02-21T11:18:14;94723.88;;;21.69;22.97
6464;BME280;3265;42.694;23.282;2023-02-21T11:20:41;94693.69;;;21.51;23.75
6464;BME280;3265;42.694;23.282;2023-02-21T11:23:21;94721.88;;;22.17;23.12
6464;BME280;3265;42.694;23.282;2023-02-21T11:25:55;94685.97;;;21.73;22.85
6464;BME280;3265;42.694;23.282;2023-02-21T11:28:24;94692.97;;;21.45;23.16
6464;BME280;3265;42.694;23.282;2023-02-21T11:31:10;94672.88;;;21.44;23.30
6464;BME280;3265;42.694;23.282;2023-02-21T11:33:40;94638.84;;;21.19;23.74
6464;BME280;3265;42.694;23.282;2023-02-21T11:36:11;94675.66;;;21.53;23.64
6464;BME280;3265;42.694;23.282;2023-02-21T11:38:40;94692.38;;;21.91;23.85
6464;BME280;3265;42.694;23.282;2023-02-21T11:41:20;94693.41;;;22.59;23.26
6464;BME280;3265;42.694;23.282;2023-02-21T11:43:48;94681.06;;;22.69;22.90
6464;BME280;3265;42.694;23.282;2023-02-21T11:46:31;94671.28;;;22.83;23.04
6464;BME280;3265;42.694;23.282;2023-02-21T11:49:01;94693.91;;;22.29;23.33
6464;BME280;3265;42.694;23.282;2023-02-21T11:51:33;94664.53;;;21.93;23.26
6464;BME280;3265;42.694;23.282;2023-02-21T11:54:05;94646.88;;;21.89;23.66
6464;BME280;3265;42.694;23.282;2023-02-21T11:56:47;94676.50;;;21.91;23.85
6464;BME280;3265;42.694;23.282;2023-02-21T11:59:33;94664.97;;;22.00;23.66
6464;BME280;3265;42.694;23.282;2023-02-21T12:02:26;94658.09;;;22.32;23.19
6464;BME280;3265;42.694;23.282;2023-02-21T12:05:08;94637.78;;;22.27;23.74
6464;BME280;3265;42.694;23.282;2023-02-21T12:07:43;94602.19;;;21.69;23.88
6464;BME280;3265;42.694;23.282;2023-02-21T12:10:37;94627.91;;;22.00;23.86
6464;BME280;3265;42.694;23.282;2023-02-21T12:16:02;94608.25;;;22.20;23.48
6464;BME280;3265;42.694;23.282;2023-02-21T12:18:42;94590.81;;;22.46;23.39
6464;BME280;3265;42.694;23.282;2023-02-21T12:21:43;94603.03;;;22.75;23.08
6464;BME280;3265;42.694;23.282;2023-02-21T12:24:23;94600.97;;;22.72;23.48
6464;BME280;3265;42.694;23.282;2023-02-21T12:26:59;94608.41;;;22.56;23.81
6464;BME280;3265;42.694;23.282;2023-02-21T12:29:53;94606.69;;;22.65;23.76
6464;BME280;3265;42.694;23.282;2023-02-21T12:32:36;94603.44;;;22.82;23.68
6464;BME280;3265;42.694;23.282;2023-02-21T12:35:37;94584.53;;;23.60;23.27
6464;BME280;3265;42.694;23.282;2023-02-21T12:38:13;94599.97;;;23.58;22.11
6464;BME280;3265;42.694;23.282;2023-02-21T12:40:53;94613.97;;;23.36;22.54
6464;BME280;3265;42.694;23.282;2023-02-21T12:43:44;94583.50;;;22.71;23.61
6464;BME280;3265;42.694;23.282;2023-02-21T12:46:20;94594.66;;;23.22;23.88
6464;BME280;3265;42.694;23.282;2023-02-21T12:48:55;94606.56;;;23.83;22.84
6464;BME280;3265;42.694;23.282;2023-02-21T12:51:27;94601.34;;;23.55;23.44
6464;BME280;3265;42.694;23.282;2023-02-21T12:54:06;94608.25;;;23.79;22.85
6464;BME280;3265;42.694;23.282;2023-02-21T12:56:41;94525.56;;;23.63;22.37
6464;BME280;3265;42.694;23.282;2023-02-21T12:59:17;94582.13;;;23.94;23.06
6464;BME280;3265;42.694;23.282;2023-02-21T13:01:48;94595.28;;;24.52;22.17
6464;BME280;3265;42.694;23.282;2023-02-21T13:04:32;94559.56;;;24.36;21.76
6464;BME280;3265;42.694;23.282;2023-02-21T13:07:05;94589.97;;;24.92;21.77
6464;BME280;3265;42.694;23.282;2023-02-21T13:09:47;94598.19;;;25.21;21.55
6464;BME280;3265;42.694;23.282;2023-02-21T13:12:19;94582.59;;;25.79;21.31
6464;BME280;3265;42.694;23.282;2023-02-21T13:14:49;94584.31;;;25.50;21.40
6464;BME280;3265;42.694;23.282;2023-02-21T13:17:18;94595.88;;;25.36;21.04
6464;BME280;3265;42.694;23.282;2023-02-21T13:19:47;94583.03;;;25.38;20.95
6464;BME280;3265;42.694;23.282;2023-02-21T13:25:50;94594.16;;;25.83;20.48
6464;BME280;3265;42.694;23.282;2023-02-21T13:28:22;94593.03;;;26.10;20.31
6464;BME280;3265;42.694;23.282;2023-02-21T13:30:50;94582.72;;;26.17;20.05
6464;BME280;3265;42.694;23.282;2023-02-21T13:33:27;94588.06;;;25.74;20.44
6464;BME280;3265;42.694;23.282;2023-02-21T13:35:57;94577.69;;;25.30;20.76
6464;BME280;3265;42.694;23.282;2023-02-21T13:38:26;94572.50;;;24.99;20.87
6464;BME280;3265;42.694;23.282;2023-02-21T13:41:03;94554.81;;;25.20;20.83
6464;BME280;3265;42.694;23.282;2023-02-21T13:43:33;94559.69;;;25.35;21.01
6464;BME280;3265;42.694;23.282;2023-02-21T13:46:22;94557.06;;;25.61;20.92
6464;BME280;3265;42.694;23.282;2023-02-21T13:51:51;94559.81;;;27.00;20.65
6464;BME280;3265;42.694;23.282;2023-02-21T13:54:22;94543.59;;;27.55;20.24
6464;BME280;3265;42.694;23.282;2023-02-21T13:56:50;94559.28;;;27.57;19.42
6464;BME280;3265;42.694;23.282;2023-02-21T13:59:33;94547.63;;;28.15;19.26
6464;BME280;3265;42.694;23.282;2023-02-21T14:02:20;94552.91;;;29.33;19.04
6464;BME280;3265;42.694;23.282;2023-02-21T14:05:05;94554.97;;;30.47;17.68